Terminal Aerodrome Forecast
Issued by NWS Cleveland, OH

Home | Current Version | Previous Version | Text Only | Print | Product List | Glossary On
Versions: 1 2 3 4 5 6 7 8 9 10 11 12 13 14 15 16 17 18 19 20 21 22 23 24 25 26 27 28 29 30 31 32 33 34
000
FTUS41 KCLE 152331
TAFYNG
TAF
KYNG 152331Z 1600/1624 18004KT P6SM BKN080
     FM161300 21004KT P6SM SCT025 BKN040
     FM161500 24004KT P6SM SCT015 BKN025
     FM161700 30004KT P6SM BKN025
     FM161900 35005KT P6SM BKN025=

USA.gov is the U.S. government's official web portal to all federal, state and local government web resources and services.